Time;durP1;ratioP1;P1;durP2;ratioP2;P2;SDS_P1;SDS_P2;PMS_P1;PMS_P2;Temp;Humidity;BMP_temperature;BMP_pressure;BME280_temperature;BME280_humidity;BME280_pressure;Samples;Min_cycle;Max_cycle;Signal;HPM_P1;HPM_P2
2022/06/16 00:00:21;;;;;;;14.90;7.35;;;12.60;99.90;;;;;;10450368;28;20025;-84
2022/06/16 00:05:26;;;;;;;16.27;8.13;;;12.60;99.90;;;;;;10452037;28;20376;-84
2022/06/16 00:10:27;;;;;;;13.68;7.72;;;12.50;99.90;;;;;;10473895;28;20045;-83
2022/06/16 00:15:28;;;;;;;11.48;7.22;;;12.40;99.90;;;;;;10501493;28;20658;-84
2022/06/16 00:20:29;;;;;;;17.42;8.15;;;12.50;99.90;;;;;;10512637;28;20035;-85
2022/06/16 00:25:32;;;;;;;16.95;7.70;;;12.40;99.90;;;;;;10544510;27;20035;-83
2022/06/16 00:30:32;;;;;;;15.13;8.15;;;12.30;99.90;;;;;;10516396;28;20532;-83
2022/06/16 00:35:33;;;;;;;16.25;7.60;;;12.30;99.90;;;;;;10520387;28;20431;-83
2022/06/16 00:40:35;;;;;;;18.27;7.88;;;12.30;99.90;;;;;;10510099;28;20020;-83
2022/06/16 00:45:48;;;;;;;18.80;8.10;;;12.30;99.90;;;;;;10506681;28;20097;-83
2022/06/16 00:51:05;;;;;;;13.35;8.27;;;12.30;99.90;;;;;;10522621;28;20028;-83
2022/06/16 00:56:08;;;;;;;17.05;7.13;;;12.20;99.90;;;;;;10510640;28;20452;-85
2022/06/16 01:01:10;;;;;;;17.52;7.97;;;12.30;99.90;;;;;;10499768;28;20028;-83
2022/06/16 01:06:22;;;;;;;13.07;6.65;;;12.20;99.90;;;;;;10492740;28;20028;-83
2022/06/16 01:17:36;;;;;;;13.10;6.78;;;12.00;99.90;;;;;;10430447;28;20033;-82
2022/06/16 01:23:03;;;;;;;15.57;7.07;;;12.10;99.90;;;;;;10453598;28;20029;-83
2022/06/16 01:28:11;;;;;;;16.10;7.63;;;12.00;99.90;;;;;;10467385;28;20025;-83
2022/06/16 01:33:45;;;;;;;13.18;7.30;;;12.00;99.90;;;;;;10435834;28;20073;-83
2022/06/16 01:38:52;;;;;;;13.25;6.70;;;11.90;99.90;;;;;;10456894;28;20045;-84
2022/06/16 01:44:10;;;;;;;11.07;6.80;;;12.00;99.90;;;;;;10456551;28;20426;-83
2022/06/16 01:49:29;;;;;;;15.85;8.23;;;12.00;99.90;;;;;;10487094;28;20482;-82
2022/06/16 01:54:56;;;;;;;12.60;7.30;;;11.90;99.90;;;;;;10454274;28;20449;-83
2022/06/16 02:00:04;;;;;;;11.77;7.10;;;11.90;99.90;;;;;;10461752;28;20040;-83
2022/06/16 02:05:22;;;;;;;15.75;7.63;;;11.80;99.90;;;;;;10470591;28;20040;-85
2022/06/16 02:10:29;;;;;;;12.23;7.20;;;11.80;99.90;;;;;;10497415;28;20480;-83
2022/06/16 02:15:52;;;;;;;16.65;7.78;;;11.80;99.90;;;;;;10466806;28;20028;-83
2022/06/16 02:21:13;;;;;;;14.52;8.23;;;11.80;99.90;;;;;;10439180;28;20029;-84
2022/06/16 02:26:15;;;;;;;16.23;7.65;;;11.90;99.90;;;;;;10437741;28;20028;-83
2022/06/16 02:31:39;;;;;;;20.75;8.80;;;11.90;99.90;;;;;;10461429;28;20067;-83
2022/06/16 02:36:52;;;;;;;16.73;7.35;;;11.80;99.90;;;;;;10455469;28;20446;-82
2022/06/16 02:42:13;;;;;;;15.32;7.18;;;11.80;99.90;;;;;;10450534;28;20044;-85
2022/06/16 02:52:51;;;;;;;13.00;6.75;;;11.90;99.90;;;;;;10456724;28;20028;-85
2022/06/16 02:57:58;;;;;;;10.65;6.38;;;12.00;99.90;;;;;;10452024;28;20020;-83
2022/06/16 03:03:15;;;;;;;11.10;6.97;;;12.10;99.90;;;;;;10468088;28;20070;-83
2022/06/16 03:08:16;;;;;;;16.85;7.95;;;12.20;99.90;;;;;;10486943;28;20090;-84
2022/06/16 03:13:21;;;;;;;14.95;7.25;;;12.20;99.90;;;;;;10461307;28;20021;-84
2022/06/16 03:18:23;;;;;;;15.50;6.82;;;12.10;99.90;;;;;;10454536;28;20017;-85
2022/06/16 03:23:24;;;;;;;11.52;6.60;;;12.20;99.90;;;;;;10448850;28;20052;-84
2022/06/16 03:28:25;;;;;;;11.10;6.75;;;12.10;99.90;;;;;;10469827;28;20024;-84
2022/06/16 03:33:26;;;;;;;12.95;6.70;;;12.10;99.90;;;;;;10464955;28;20096;-84
2022/06/16 03:38:44;;;;;;;11.25;6.05;;;12.20;99.90;;;;;;10450139;28;20013;-87
2022/06/16 03:43:45;;;;;;;9.98;6.70;;;12.20;99.90;;;;;;10430368;28;20029;-86
2022/06/16 03:48:46;;;;;;;9.27;5.95;;;12.30;99.90;;;;;;10450289;28;20024;-83
2022/06/16 03:53:47;;;;;;;11.15;6.25;;;12.40;99.90;;;;;;10469896;28;20024;-85
2022/06/16 03:58:52;;;;;;;10.63;6.05;;;12.40;99.90;;;;;;10449870;28;20021;-84
2022/06/16 04:04:01;;;;;;;11.83;6.30;;;12.50;99.90;;;;;;10458334;28;20025;-85
2022/06/16 04:09:03;;;;;;;10.20;6.38;;;12.50;99.90;;;;;;10446886;28;20072;-82
2022/06/16 04:14:10;;;;;;;10.32;5.93;;;12.50;99.90;;;;;;10454212;28;20048;-84
2022/06/16 04:19:13;;;;;;;9.13;6.63;;;12.60;99.90;;;;;;10453763;28;20029;-85
2022/06/16 04:24:16;;;;;;;10.88;6.43;;;12.70;99.90;;;;;;10463329;28;20051;-84
2022/06/16 04:29:17;;;;;;;12.50;6.90;;;12.90;99.90;;;;;;10464604;28;20028;-85
2022/06/16 04:34:20;;;;;;;11.35;7.00;;;13.00;99.90;;;;;;10478130;28;20126;-83
2022/06/16 04:39:21;;;;;;;9.95;6.45;;;13.20;99.90;;;;;;10463296;28;20031;-85
2022/06/16 04:44:21;;;;;;;13.90;7.20;;;13.30;99.90;;;;;;10450439;28;20396;-85
2022/06/16 04:49:22;;;;;;;13.63;7.68;;;13.50;99.90;;;;;;10463575;28;20044;-84
2022/06/16 04:54:23;;;;;;;10.02;6.90;;;13.70;99.90;;;;;;10459735;28;20025;-84
2022/06/16 04:59:23;;;;;;;10.00;6.65;;;14.00;99.90;;;;;;10446434;28;20092;-84
2022/06/16 05:04:24;;;;;;;12.30;6.80;;;14.20;99.90;;;;;;10457604;28;20087;-84
2022/06/16 05:09:25;;;;;;;12.73;6.68;;;14.40;99.90;;;;;;10431591;28;20041;-86
2022/06/16 05:14:26;;;;;;;10.68;6.38;;;14.60;99.90;;;;;;10449897;28;20036;-83
2022/06/16 05:19:30;;;;;;;11.70;5.90;;;14.90;99.90;;;;;;10448642;28;20079;-84
2022/06/16 05:24:31;;;;;;;10.88;6.70;;;15.20;99.90;;;;;;10445355;28;20082;-84
2022/06/16 05:29:33;;;;;;;10.52;6.35;;;15.40;99.90;;;;;;10448015;28;20083;-84
2022/06/16 05:34:36;;;;;;;9.18;6.18;;;15.70;99.90;;;;;;10466151;28;20029;-87
2022/06/16 05:39:36;;;;;;;11.05;6.05;;;16.00;99.90;;;;;;10444868;28;20021;-84
2022/06/16 05:44:37;;;;;;;12.30;6.22;;;16.30;99.90;;;;;;10459206;28;20035;-86
2022/06/16 05:49:42;;;;;;;10.25;5.45;;;16.60;99.90;;;;;;10460816;28;20039;-84
2022/06/16 05:54:42;;;;;;;15.03;5.80;;;16.80;99.90;;;;;;10463899;28;20021;-85
2022/06/16 05:59:43;;;;;;;10.23;5.35;;;17.00;99.90;;;;;;10464799;28;20040;-86
2022/06/16 06:04:44;;;;;;;7.55;4.65;;;17.20;99.90;;;;;;10473648;28;20024;-84
2022/06/16 06:20:46;;;;;;;6.93;4.38;;;17.80;99.90;;;;;;10451874;28;20025;-85
2022/06/16 06:25:47;;;;;;;8.00;4.70;;;18.20;99.90;;;;;;10451117;28;20032;-84
2022/06/16 06:30:47;;;;;;;8.98;4.65;;;18.40;99.90;;;;;;10456461;28;20457;-86
2022/06/16 06:35:48;;;;;;;7.63;4.07;;;18.70;97.70;;;;;;10471005;28;20017;-84
2022/06/16 06:40:49;;;;;;;8.40;4.68;;;19.00;97.50;;;;;;10458532;28;20112;-84
2022/06/16 06:45:50;;;;;;;7.93;4.13;;;19.20;96.10;;;;;;10470062;28;20454;-86
2022/06/16 06:50:51;;;;;;;5.55;3.83;;;19.50;95.50;;;;;;10478223;28;20759;-85
2022/06/16 06:55:51;;;;;;;6.15;4.03;;;20.60;95.10;;;;;;10467089;28;20120;-87
2022/06/16 07:00:56;;;;;;;6.55;4.20;;;22.00;90.50;;;;;;10457995;28;20017;-85
2022/06/16 07:05:57;;;;;;;8.73;4.20;;;23.20;86.80;;;;;;10460085;28;20121;-87
2022/06/16 07:10:58;;;;;;;6.85;3.97;;;23.90;82.60;;;;;;10492782;28;20178;-85
2022/06/16 07:15:59;;;;;;;7.85;4.00;;;24.20;78.90;;;;;;10506505;28;20045;-85
2022/06/16 07:20:59;;;;;;;5.68;3.67;;;24.60;79.90;;;;;;10488377;28;20024;-84
2022/06/16 07:26:00;;;;;;;7.75;4.47;;;25.10;77.10;;;;;;10505843;28;20530;-85
2022/06/16 07:31:01;;;;;;;5.05;3.90;;;25.60;75.10;;;;;;10507089;28;20029;-83
2022/06/16 07:36:02;;;;;;;7.07;4.25;;;25.90;74.80;;;;;;10530327;28;20012;-82
2022/06/16 07:46:24;;;;;;;6.20;3.90;;;26.10;72.70;;;;;;10501797;28;20028;-84
2022/06/16 07:51:25;;;;;;;7.30;3.40;;;25.90;71.80;;;;;;10514373;28;20096;-83
2022/06/16 07:56:25;;;;;;;4.78;3.60;;;25.80;73.50;;;;;;10520885;28;20378;-84
2022/06/16 08:01:26;;;;;;;5.93;3.50;;;25.50;73.40;;;;;;10523520;28;20044;-85
2022/06/16 08:06:27;;;;;;;6.47;3.75;;;25.40;73.10;;;;;;10545208;28;20077;-84
2022/06/16 08:16:47;;;;;;;4.88;3.90;;;25.60;74.90;;;;;;10452387;28;20052;-84
2022/06/16 08:21:49;;;;;;;5.53;4.00;;;25.70;74.30;;;;;;10444433;28;20059;-84
2022/06/16 08:26:50;;;;;;;8.30;4.25;;;25.50;74.50;;;;;;10454051;28;20028;-84
2022/06/16 08:31:51;;;;;;;7.78;3.88;;;25.30;75.70;;;;;;10459806;28;20021;-84
2022/06/16 08:36:52;;;;;;;6.93;3.60;;;25.30;74.90;;;;;;10430742;28;20059;-86
2022/06/16 08:42:07;;;;;;;4.82;3.30;;;25.40;76.00;;;;;;10453722;28;20025;-84
2022/06/16 08:47:22;;;;;;;;;;;25.80;75.80;;;;;;10469664;28;20039;-86
2022/06/16 08:52:36;;;;;;;10.33;4.63;;;26.00;73.20;;;;;;10461950;28;20381;-83
2022/06/16 08:57:45;;;;;;;6.40;3.80;;;26.10;75.00;;;;;;10447261;28;20019;-84
2022/06/16 09:02:56;;;;;;;9.15;4.00;;;26.50;75.40;;;;;;10454109;28;20053;-86
2022/06/16 09:08:18;;;;;;;11.48;4.13;;;26.50;71.80;;;;;;10446183;28;20144;-85
2022/06/16 09:13:24;;;;;;;11.60;4.30;;;26.50;73.00;;;;;;10453984;28;20017;-87
2022/06/16 09:18:35;;;;;;;7.03;3.55;;;26.70;73.00;;;;;;10466315;28;20035;-86
2022/06/16 09:24:03;;;;;;;8.18;4.50;;;26.90;71.60;;;;;;10478467;28;20021;-86
2022/06/16 09:29:05;;;;;;;6.18;3.97;;;27.00;71.70;;;;;;10464359;28;20032;-85
2022/06/16 09:34:33;;;;;;;6.45;3.28;;;27.00;70.80;;;;;;10450946;28;20020;-86
2022/06/16 09:39:39;;;;;;;5.38;3.30;;;27.30;70.70;;;;;;10453089;28;20025;-88
2022/06/16 09:44:52;;;;;;;4.88;2.75;;;27.70;68.40;;;;;;10453097;28;20033;-87
2022/06/16 09:50:10;;;;;;;4.13;2.88;;;27.50;66.10;;;;;;10452572;28;20029;-84
2022/06/16 09:55:20;;;;;;;7.65;3.45;;;27.30;66.40;;;;;;10454224;28;20029;-85
2022/06/16 10:00:23;;;;;;;3.58;2.70;;;26.90;67.50;;;;;;10471100;28;20439;-86
2022/06/16 10:06:03;;;;;;;8.15;2.88;;;26.90;66.70;;;;;;10461346;28;20024;-88
2022/06/16 10:11:26;;;;;;;6.03;2.58;;;27.00;66.60;;;;;;10452126;28;20072;-85
2022/06/16 10:16:43;;;;;;;3.15;2.80;;;27.10;65.10;;;;;;10488056;28;20017;-85
2022/06/16 10:21:43;;;;;;;5.65;3.15;;;26.80;66.70;;;;;;10486830;28;20066;-87
2022/06/16 10:26:44;;;;;;;5.55;3.35;;;26.70;69.10;;;;;;10468487;28;20013;-85
2022/06/16 10:31:46;;;;;;;3.78;2.80;;;26.80;67.00;;;;;;10481717;28;20029;-84
2022/06/16 10:37:06;;;;;;;6.20;3.10;;;27.00;69.10;;;;;;10450409;28;20104;-84
2022/06/16 10:42:20;;;;;;;6.93;3.20;;;27.60;68.50;;;;;;10465155;28;20464;-84
2022/06/16 10:47:32;;;;;;;6.05;3.33;;;28.10;67.50;;;;;;10498925;28;20033;-85
2022/06/16 10:52:38;;;;;;;4.35;3.00;;;28.40;67.90;;;;;;10450934;28;20021;-84
2022/06/16 10:58:03;;;;;;;3.42;2.75;;;28.50;64.50;;;;;;10462368;28;20021;-84
2022/06/16 11:03:04;;;;;;;4.90;2.78;;;28.20;64.20;;;;;;10464034;28;20049;-86
2022/06/16 11:08:11;;;;;;;4.68;2.70;;;28.10;64.70;;;;;;10450702;28;20048;-85
2022/06/16 11:13:20;;;;;;;6.05;2.38;;;27.80;65.30;;;;;;10478874;28;20048;-86
2022/06/16 11:18:25;;;;;;;5.72;3.05;;;27.70;64.70;;;;;;10456512;28;20492;-87
2022/06/16 11:23:33;;;;;;;2.85;2.20;;;28.20;64.20;;;;;;10488867;28;20036;-86
2022/06/16 11:28:49;;;;;;;4.53;2.35;;;28.80;61.10;;;;;;10450925;28;20017;-87
2022/06/16 11:34:19;;;;;;;4.15;2.40;;;28.10;61.40;;;;;;10451189;28;20023;-88
2022/06/16 11:39:32;;;;;;;4.32;2.60;;;27.70;63.30;;;;;;10461205;28;20495;-88
2022/06/16 11:44:36;;;;;;;3.58;2.40;;;27.50;62.90;;;;;;10448404;28;20029;-87
2022/06/16 11:49:39;;;;;;;5.85;2.83;;;26.70;62.10;;;;;;10448039;28;20025;-85
2022/06/16 11:55:15;;;;;;;13.75;4.72;;;25.80;69.40;;;;;;10455138;28;20102;-87
2022/06/16 12:00:15;;;;;;;9.80;4.75;;;23.90;99.90;;;;;;10447572;28;20070;-87
2022/06/16 12:05:40;;;;;;;7.53;4.70;;;22.40;99.90;;;;;;10429108;28;20025;-89
2022/06/16 12:10:50;;;;;;;9.03;5.60;;;22.00;99.90;;;;;;10464622;28;20052;-89
2022/06/16 12:16:03;;;;;;;5.32;3.58;;;22.50;99.90;;;;;;10508753;28;20045;-86
2022/06/16 12:21:10;;;;;;;6.05;4.13;;;23.40;99.90;;;;;;10520020;28;20081;-85
2022/06/16 12:26:23;;;;;;;5.90;4.10;;;23.90;99.90;;;;;;10515209;28;20027;-86
2022/06/16 12:31:35;;;;;;;6.38;4.38;;;23.70;99.90;;;;;;10505675;28;20107;-86
2022/06/16 12:36:41;;;;;;;7.80;4.60;;;23.50;99.90;;;;;;10529553;28;20029;-85
2022/06/16 12:41:48;;;;;;;9.90;4.40;;;23.30;99.90;;;;;;10530269;28;20024;-85
2022/06/16 12:46:54;;;;;;;8.38;5.10;;;23.30;99.90;;;;;;10530463;28;20043;-86
2022/06/16 12:52:09;;;;;;;5.53;4.75;;;23.20;99.90;;;;;;10529182;28;20410;-85
2022/06/16 12:57:16;;;;;;;5.07;4.63;;;23.00;99.90;;;;;;10529549;28;20838;-85
2022/06/16 13:02:22;;;;;;;7.72;5.10;;;22.80;99.90;;;;;;10527801;28;20024;-85
2022/06/16 13:07:28;;;;;;;7.05;6.05;;;22.70;99.90;;;;;;10531634;28;20459;-85
2022/06/16 13:12:35;;;;;;;7.18;5.95;;;22.60;99.90;;;;;;10496049;28;20036;-85
2022/06/16 13:17:38;;;;;;;10.10;4.90;;;22.90;99.90;;;;;;10481505;28;20033;-85
2022/06/16 13:23:09;;;;;;;5.22;4.38;;;23.30;99.90;;;;;;10454308;28;20083;-84
2022/06/16 13:28:35;;;;;;;5.53;3.72;;;23.70;99.90;;;;;;10434301;28;20492;-84
2022/06/16 13:33:45;;;;;;;;;;;23.60;99.90;;;;;;10467585;28;20028;-85
2022/06/16 13:38:48;;;;;;;6.32;3.70;;;23.20;99.90;;;;;;10494935;28;19916;-86
2022/06/16 13:44:17;;;;;;;5.47;3.83;;;23.00;99.90;;;;;;10462710;28;20036;-85
2022/06/16 13:49:52;;;;;;;5.47;3.95;;;22.60;99.90;;;;;;10467633;28;20075;-85
2022/06/16 13:55:11;;;;;;;5.30;3.90;;;22.20;99.90;;;;;;10466605;28;20028;-85
2022/06/16 14:00:31;;;;;;;6.20;3.65;;;21.80;99.90;;;;;;10471870;28;20092;-86
2022/06/16 14:05:34;;;;;;;9.93;3.35;;;21.60;99.90;;;;;;10483180;28;20023;-89
2022/06/16 14:10:49;;;;;;;4.15;3.20;;;21.20;99.90;;;;;;10489114;28;20036;-85
2022/06/16 14:16:16;;;;;;;14.77;3.72;;;20.90;99.90;;;;;;10465416;28;20726;-85
2022/06/16 14:21:22;;;;;;;5.90;3.58;;;20.60;99.90;;;;;;10452233;28;20040;-86
2022/06/16 14:26:25;;;;;;;6.10;3.60;;;20.40;99.90;;;;;;10472193;28;20107;-84
2022/06/16 14:31:27;;;;;;;5.47;3.53;;;20.30;99.90;;;;;;10466280;28;20058;-85
2022/06/16 14:36:40;;;;;;;5.35;3.65;;;20.30;99.90;;;;;;10483239;28;20048;-85
2022/06/16 14:41:47;;;;;;;7.43;3.42;;;20.30;99.90;;;;;;10459844;28;20039;-87
2022/06/16 14:46:56;;;;;;;4.50;3.30;;;20.20;99.90;;;;;;10458529;28;20029;-84
2022/06/16 14:52:00;;;;;;;4.60;3.22;;;19.70;99.90;;;;;;10462204;28;20037;-85
2022/06/16 14:57:00;;;;;;;4.88;2.80;;;19.40;99.90;;;;;;10468835;28;20406;-86
2022/06/16 15:02:08;;;;;;;3.30;2.72;;;19.10;99.90;;;;;;10476871;28;20037;-87
2022/06/16 15:07:14;;;;;;;3.80;2.80;;;19.10;99.90;;;;;;10461700;28;20025;-85
2022/06/16 15:12:16;;;;;;;4.15;2.92;;;18.90;99.90;;;;;;10465203;28;20498;-84
2022/06/16 15:22:46;;;;;;;3.28;2.60;;;18.40;99.90;;;;;;10471877;28;20032;-86
2022/06/16 15:27:49;;;;;;;4.10;2.88;;;18.30;99.90;;;;;;10456639;28;20090;-87
2022/06/16 15:36:08;;;;;;;4.75;2.97;;;18.30;99.90;;;;;;10457855;28;20091;-83
2022/06/16 15:38:20;;;;;;;4.25;3.85;;;18.00;99.90;;;;;;10483154;28;20035;-84
2022/06/16 15:43:24;;;;;;;5.22;2.90;;;18.10;99.90;;;;;;10467368;28;20044;-85
2022/06/16 15:48:28;;;;;;;6.68;3.53;;;18.30;99.90;;;;;;10476346;28;20367;-85
2022/06/16 15:53:30;;;;;;;4.13;2.93;;;18.50;99.90;;;;;;10448541;28;20028;-84
2022/06/16 15:58:31;;;;;;;5.13;3.45;;;18.70;99.90;;;;;;10463577;28;20274;-86
2022/06/16 16:03:34;;;;;;;5.05;3.30;;;18.60;99.90;;;;;;10461504;28;20457;-83
2022/06/16 16:08:35;;;;;;;3.47;3.13;;;18.80;99.90;;;;;;10454823;28;20048;-84
2022/06/16 16:14:04;;;;;;;4.38;3.53;;;19.00;99.90;;;;;;10446454;28;20025;-84
2022/06/16 16:19:07;;;;;;;8.60;4.00;;;19.10;99.90;;;;;;10428648;28;20315;-84
2022/06/16 16:24:10;;;;;;;4.45;3.80;;;19.10;99.90;;;;;;10429361;28;20108;-84
2022/06/16 16:29:19;;;;;;;4.95;3.88;;;19.10;99.90;;;;;;10491933;28;20028;-84
2022/06/16 16:34:31;;;;;;;4.47;3.22;;;19.10;99.90;;;;;;10447951;28;20469;-84
2022/06/16 16:39:36;;;;;;;6.70;5.30;;;19.10;99.90;;;;;;10456973;28;20023;-86
2022/06/16 16:44:39;;;;;;;6.73;4.67;;;18.90;99.90;;;;;;10429950;28;20028;-84
2022/06/16 16:49:52;;;;;;;4.57;3.63;;;18.80;99.90;;;;;;10451858;28;20021;-84
2022/06/16 16:55:16;;;;;;;6.57;3.65;;;18.80;99.90;;;;;;10456012;28;20029;-84
2022/06/16 17:00:21;;;;;;;4.95;4.07;;;18.80;99.90;;;;;;10473310;28;20017;-86
2022/06/16 17:05:21;;;;;;;5.70;3.70;;;18.60;99.90;;;;;;10428434;28;20029;-85
2022/06/16 17:10:22;;;;;;;6.65;3.80;;;18.60;99.90;;;;;;10446212;28;20048;-85
2022/06/16 17:15:23;;;;;;;6.25;4.70;;;18.60;99.90;;;;;;10445894;28;20021;-84
2022/06/16 17:20:24;;;;;;;6.45;4.55;;;18.50;99.90;;;;;;10447686;28;20027;-83
2022/06/16 17:25:25;;;;;;;7.30;5.10;;;18.60;99.90;;;;;;10450084;28;20067;-85
2022/06/16 17:30:28;;;;;;;6.43;5.22;;;18.50;99.90;;;;;;10469745;28;20529;-85
2022/06/16 17:35:36;;;;;;;5.60;4.45;;;18.60;99.90;;;;;;10473900;28;20028;-84
2022/06/16 17:40:36;;;;;;;6.82;5.10;;;18.60;99.90;;;;;;10471762;28;20036;-84
2022/06/16 17:45:38;;;;;;;9.90;6.50;;;18.70;99.90;;;;;;10456183;28;20024;-86
2022/06/16 17:50:42;;;;;;;5.68;4.40;;;18.70;99.90;;;;;;10443887;28;20036;-83
2022/06/16 18:01:07;;;;;;;22.63;13.77;;;18.60;99.90;;;;;;10481221;28;20053;-83
2022/06/16 18:06:10;;;;;;;10.02;6.57;;;18.60;99.90;;;;;;10471715;28;20035;-83
2022/06/16 18:11:12;;;;;;;7.68;5.03;;;18.60;99.90;;;;;;10468205;28;20159;-85
2022/06/16 18:16:18;;;;;;;6.25;5.15;;;18.60;99.90;;;;;;10472734;28;20029;-85
2022/06/16 18:21:31;;;;;;;8.27;5.50;;;18.50;99.90;;;;;;10472689;28;20464;-84
2022/06/16 18:26:44;;;;;;;10.00;6.40;;;18.50;99.90;;;;;;10472705;28;20029;-84
2022/06/16 18:31:48;;;;;;;8.48;5.78;;;18.40;99.90;;;;;;10460880;28;20032;-83
2022/06/16 18:36:50;;;;;;;7.50;5.03;;;18.20;99.90;;;;;;10461100;28;20021;-83
2022/06/16 18:41:56;;;;;;;9.18;6.03;;;18.10;99.90;;;;;;10466186;28;20044;-84
2022/06/16 18:47:04;;;;;;;9.48;6.47;;;17.90;99.90;;;;;;10467698;28;20057;-83
2022/06/16 18:52:26;;;;;;;8.05;7.07;;;17.70;99.90;;;;;;10450385;28;20021;-81
2022/06/16 18:57:29;;;;;;;9.75;6.75;;;17.50;99.90;;;;;;10467118;28;20507;-82
2022/06/16 19:02:35;;;;;;;9.57;6.85;;;17.30;99.90;;;;;;10474093;28;20028;-82
2022/06/16 19:07:36;;;;;;;;;;;17.20;99.90;;;;;;10454562;28;20090;-85
2022/06/16 19:12:36;;;;;;;10.95;7.75;;;17.10;99.90;;;;;;10492698;28;20003;-85
2022/06/16 19:17:45;;;;;;;10.25;7.82;;;17.10;99.90;;;;;;10466838;28;20468;-85
2022/06/16 19:22:46;;;;;;;9.82;8.40;;;17.00;99.90;;;;;;10467457;28;20111;-81
2022/06/16 19:27:47;;;;;;;9.10;7.63;;;16.90;99.90;;;;;;10457855;28;20009;-84
2022/06/16 19:32:48;;;;;;;10.02;7.60;;;16.90;99.90;;;;;;10463212;28;20021;-84
2022/06/16 19:37:52;;;;;;;11.02;7.43;;;16.90;99.90;;;;;;10472370;28;20087;-83
2022/06/16 19:42:54;;;;;;;11.40;8.80;;;16.80;99.90;;;;;;10467977;28;20675;-83
2022/06/16 19:53:18;;;;;;;12.18;8.52;;;16.60;99.90;;;;;;10446100;28;20020;-83
2022/06/16 19:58:19;;;;;;;9.98;7.72;;;16.60;99.90;;;;;;10446798;28;20010;-83
2022/06/16 20:03:24;;;;;;;11.75;9.45;;;16.60;99.90;;;;;;10445948;28;20028;-83
2022/06/16 20:08:25;;;;;;;11.50;9.60;;;16.50;99.90;;;;;;10464023;28;20033;-84
2022/06/16 20:13:28;;;;;;;14.63;10.80;;;16.60;99.90;;;;;;10468066;28;20021;-82
2022/06/16 20:18:30;;;;;;;12.75;8.90;;;16.60;99.90;;;;;;10460577;28;20024;-83
2022/06/16 20:23:36;;;;;;;12.65;9.68;;;16.50;99.90;;;;;;10442937;28;20033;-83
2022/06/16 20:28:39;;;;;;;11.82;9.90;;;16.60;99.90;;;;;;10466386;28;20074;-84
2022/06/16 20:33:40;;;;;;;16.33;11.30;;;16.60;99.90;;;;;;10467040;28;20020;-86
2022/06/16 20:38:41;;;;;;;17.48;12.38;;;16.50;99.90;;;;;;10472143;28;20017;-84
2022/06/16 20:43:42;;;;;;;14.15;10.70;;;16.50;99.90;;;;;;10460885;28;20445;-87
2022/06/16 20:48:43;;;;;;;13.10;10.48;;;16.30;99.90;;;;;;10456365;28;20112;-85
2022/06/16 20:53:44;;;;;;;14.85;10.10;;;16.10;99.90;;;;;;10454182;28;20116;-86
2022/06/16 21:04:05;;;;;;;15.55;11.48;;;15.70;99.90;;;;;;10470210;28;20123;-85
2022/06/16 21:09:09;;;;;;;17.65;13.30;;;15.50;99.90;;;;;;10461436;28;20079;-83
2022/06/16 21:14:10;;;;;;;20.37;15.10;;;15.50;99.90;;;;;;10470276;28;20029;-85
2022/06/16 21:19:11;;;;;;;19.83;14.52;;;15.50;99.90;;;;;;10465743;28;20052;-84
2022/06/16 21:24:23;;;;;;;20.15;15.10;;;15.60;99.90;;;;;;10465980;28;20492;-88
2022/06/16 21:29:24;;;;;;;22.65;16.70;;;15.60;99.90;;;;;;10482567;28;20077;-86
2022/06/16 21:34:24;;;;;;;21.52;16.60;;;15.60;99.90;;;;;;10490797;28;20016;-88
2022/06/16 21:39:25;;;;;;;23.45;17.42;;;15.70;99.90;;;;;;10484736;28;20079;-87
2022/06/16 21:44:26;;;;;;;25.58;18.65;;;15.70;99.90;;;;;;10457640;28;20028;-83
2022/06/16 21:49:27;;;;;;;28.70;22.33;;;15.70;99.90;;;;;;10469485;28;20097;-85
2022/06/16 21:54:28;;;;;;;34.10;23.75;;;15.70;99.90;;;;;;10470018;28;20021;-84
2022/06/16 21:59:29;;;;;;;43.25;29.42;;;15.70;99.90;;;;;;10470403;28;20048;-85
2022/06/16 22:04:32;;;;;;;45.58;30.63;;;15.70;99.90;;;;;;10477201;28;20032;-84
2022/06/16 22:09:33;;;;;;;51.50;34.25;;;15.70;99.90;;;;;;10465533;28;20152;-84
2022/06/16 22:19:55;;;;;;;52.92;33.50;;;15.70;99.90;;;;;;10478551;28;20525;-85
2022/06/16 22:24:56;;;;;;;57.25;36.67;;;15.70;99.90;;;;;;10457228;28;20041;-84
2022/06/16 22:29:57;;;;;;;57.63;38.65;;;15.60;99.90;;;;;;10451308;28;20479;-86
2022/06/16 22:34:58;;;;;;;67.32;43.60;;;15.50;99.90;;;;;;10452003;28;20037;-86
2022/06/16 22:45:21;;;;;;;55.13;36.72;;;15.50;99.90;;;;;;10463650;28;20033;-85
2022/06/16 22:50:23;;;;;;;61.35;40.47;;;15.50;99.90;;;;;;10450602;28;20047;-85
2022/06/16 23:00:44;;;;;;;54.80;37.60;;;15.50;99.90;;;;;;10464869;28;20040;-83
2022/06/16 23:05:46;;;;;;;63.83;41.13;;;15.40;99.90;;;;;;10450812;28;20021;-83
2022/06/16 23:10:47;;;;;;;54.80;37.13;;;15.40;99.90;;;;;;10470633;28;20388;-83
2022/06/16 23:15:49;;;;;;;39.92;26.50;;;15.50;99.90;;;;;;10491955;28;20815;-83
2022/06/16 23:20:50;;;;;;;25.23;18.55;;;15.50;99.90;;;;;;10450580;28;20009;-82
2022/06/16 23:25:52;;;;;;;18.65;12.93;;;15.60;99.90;;;;;;10449437;28;20036;-83
2022/06/16 23:30:54;;;;;;;18.38;12.93;;;15.60;99.90;;;;;;10445340;28;20029;-82
2022/06/16 23:35:55;;;;;;;11.65;10.38;;;15.60;99.90;;;;;;10431071;28;20045;-82
2022/06/16 23:40:55;;;;;;;12.65;9.05;;;15.50;99.90;;;;;;10459985;28;20049;-82
2022/06/16 23:45:59;;;;;;;11.15;8.48;;;15.50;99.90;;;;;;10463305;28;20611;-82
2022/06/16 23:51:03;;;;;;;10.30;7.55;;;15.40;99.90;;;;;;10468327;28;20062;-83
2022/06/16 23:56:09;;;;;;;10.52;8.57;;;15.40;99.90;;;;;;10448901;28;20025;-83
